sensor_id;sensor_type;location;lat;lon;timestamp;pressure;altitude;pressure_sealevel;temperature;humidity
54588;BME280;40484;50.198;19.576;2023-07-24T12:34:16;100876.07;;;32.41;28.16
54588;BME280;40484;50.198;19.576;2023-07-24T12:39:18;100863.69;;;32.73;27.62
54588;BME280;40484;50.198;19.576;2023-07-24T12:44:19;100850.90;;;32.76;28.41
54588;BME280;40484;50.198;19.576;2023-07-24T12:49:21;100841.49;;;33.44;26.70
54588;BME280;40484;50.198;19.576;2023-07-24T12:54:23;100823.31;;;33.50;27.20
54588;BME280;40484;50.198;19.576;2023-07-24T12:59:24;100822.39;;;33.82;26.78
54588;BME280;40484;50.198;19.576;2023-07-24T13:04:26;100817.31;;;34.00;25.96
54588;BME280;40484;50.198;19.576;2023-07-24T13:09:27;100803.86;;;34.38;26.13
54588;BME280;40484;50.198;19.576;2023-07-24T13:14:29;100782.27;;;34.17;25.87
54588;BME280;40484;50.198;19.576;2023-07-24T13:19:30;100779.32;;;34.08;25.61
54588;BME280;40484;50.198;19.576;2023-07-24T13:24:32;100761.09;;;34.58;26.26
54588;BME280;40484;50.198;19.576;2023-07-24T13:29:33;100757.30;;;34.93;26.30
54588;BME280;40484;50.198;19.576;2023-07-24T13:34:35;100748.68;;;34.38;25.91
54588;BME280;40484;50.198;19.576;2023-07-24T13:39:36;100736.59;;;34.86;25.94
54588;BME280;40484;50.198;19.576;2023-07-24T13:44:38;100721.90;;;34.21;25.75
54588;BME280;40484;50.198;19.576;2023-07-24T13:49:39;100725.63;;;34.31;26.85
54588;BME280;40484;50.198;19.576;2023-07-24T13:54:41;100711.03;;;34.22;26.42
54588;BME280;40484;50.198;19.576;2023-07-24T13:59:42;100690.99;;;34.22;26.14
54588;BME280;40484;50.198;19.576;2023-07-24T14:04:44;100686.56;;;34.29;27.00
54588;BME280;40484;50.198;19.576;2023-07-24T14:09:45;100683.00;;;34.76;27.60
54588;BME280;40484;50.198;19.576;2023-07-24T14:14:46;100679.02;;;35.35;26.73
54588;BME280;40484;50.198;19.576;2023-07-24T14:19:48;100677.97;;;35.83;26.13
54588;BME280;40484;50.198;19.576;2023-07-24T14:25:14;100672.09;;;35.99;25.70
54588;BME280;40484;50.198;19.576;2023-07-24T14:30:15;100670.20;;;36.03;25.79
54588;BME280;40484;50.198;19.576;2023-07-24T14:35:17;100668.30;;;35.66;25.49
54588;BME280;40484;50.198;19.576;2023-07-24T14:40:18;100656.02;;;35.32;26.23
54588;BME280;40484;50.198;19.576;2023-07-24T14:45:20;100651.54;;;35.25;26.30
54588;BME280;40484;50.198;19.576;2023-07-24T14:50:21;100638.59;;;34.92;26.89
54588;BME280;40484;50.198;19.576;2023-07-24T14:55:23;100636.70;;;34.96;28.09
54588;BME280;40484;50.198;19.576;2023-07-24T15:00:24;100615.34;;;34.83;28.91
54588;BME280;40484;50.198;19.576;2023-07-24T15:05:26;100610.84;;;34.73;30.00
54588;BME280;40484;50.198;19.576;2023-07-24T15:10:27;100588.20;;;34.62;29.88
54588;BME280;40484;50.198;19.576;2023-07-24T15:15:29;100576.88;;;34.59;30.68
54588;BME280;40484;50.198;19.576;2023-07-24T15:20:31;100576.63;;;34.43;31.08
54588;BME280;40484;50.198;19.576;2023-07-24T15:25:33;100559.18;;;34.38;31.81
54588;BME280;40484;50.198;19.576;2023-07-24T15:30:34;100554.65;;;34.28;32.26
54588;BME280;40484;50.198;19.576;2023-07-24T15:35:36;100555.70;;;34.20;32.65
54588;BME280;40484;50.198;19.576;2023-07-24T15:40:37;100564.98;;;34.12;32.95
54588;BME280;40484;50.198;19.576;2023-07-24T15:45:42;100548.31;;;33.97;33.84
54588;BME280;40484;50.198;19.576;2023-07-24T15:50:44;100538.99;;;33.81;34.59
54588;BME280;40484;50.198;19.576;2023-07-24T15:55:45;100534.14;;;33.67;34.57
54588;BME280;40484;50.198;19.576;2023-07-24T16:00:47;100522.01;;;33.46;35.03
54588;BME280;40484;50.198;19.576;2023-07-24T16:05:48;100535.12;;;33.25;35.14
54588;BME280;40484;50.198;19.576;2023-07-24T16:11:18;100538.12;;;33.01;35.32
54588;BME280;40484;50.198;19.576;2023-07-24T16:16:19;100530.84;;;32.83;35.55
54588;BME280;40484;50.198;19.576;2023-07-24T16:21:21;100530.41;;;32.70;35.41
54588;BME280;40484;50.198;19.576;2023-07-24T16:26:24;100556.94;;;32.45;36.20
54588;BME280;40484;50.198;19.576;2023-07-24T16:31:27;100652.56;;;31.19;34.33
54588;BME280;40484;50.198;19.576;2023-07-24T16:36:28;100673.96;;;29.45;37.07
54588;BME280;40484;50.198;19.576;2023-07-24T16:41:31;100668.37;;;28.27;42.12
54588;BME280;40484;50.198;19.576;2023-07-24T16:46:32;100704.13;;;27.52;44.57
54588;BME280;40484;50.198;19.576;2023-07-24T16:51:34;100702.59;;;27.13;45.81
54588;BME280;40484;50.198;19.576;2023-07-24T16:56:35;100597.73;;;27.33;46.71
54588;BME280;40484;50.198;19.576;2023-07-24T17:01:37;100597.62;;;27.05;46.64
54588;BME280;40484;50.198;19.576;2023-07-24T17:06:38;100633.73;;;27.12;47.03
54588;BME280;40484;50.198;19.576;2023-07-24T17:11:40;100652.25;;;26.89;47.02
54588;BME280;40484;50.198;19.576;2023-07-24T17:16:41;100613.44;;;26.46;48.21
54588;BME280;40484;50.198;19.576;2023-07-24T17:21:43;100635.18;;;26.50;48.67
54588;BME280;40484;50.198;19.576;2023-07-24T17:26:44;100643.18;;;26.16;48.84
54588;BME280;40484;50.198;19.576;2023-07-24T17:31:46;100667.88;;;26.38;48.76
54588;BME280;40484;50.198;19.576;2023-07-24T17:36:47;100696.15;;;25.95;49.36
54588;BME280;40484;50.198;19.576;2023-07-24T17:41:49;100671.37;;;25.06;51.62
54588;BME280;40484;50.198;19.576;2023-07-24T17:46:50;100679.56;;;24.31;53.53
54588;BME280;40484;50.198;19.576;2023-07-24T17:51:51;100646.98;;;24.22;54.23
54588;BME280;40484;50.198;19.576;2023-07-24T17:56:53;100637.84;;;24.68;53.10
54588;BME280;40484;50.198;19.576;2023-07-24T18:02:21;100647.10;;;25.73;51.36
54588;BME280;40484;50.198;19.576;2023-07-24T18:07:22;100648.50;;;26.38;50.10
54588;BME280;40484;50.198;19.576;2023-07-24T18:12:24;100700.71;;;26.36;49.95
54588;BME280;40484;50.198;19.576;2023-07-24T18:17:25;100759.42;;;24.85;51.26
54588;BME280;40484;50.198;19.576;2023-07-24T18:22:26;100744.18;;;24.45;54.71
54588;BME280;40484;50.198;19.576;2023-07-24T18:27:29;100732.02;;;24.09;57.10
54588;BME280;40484;50.198;19.576;2023-07-24T18:32:30;100699.16;;;24.45;56.37
54588;BME280;40484;50.198;19.576;2023-07-24T18:37:32;100713.75;;;24.38;57.02
54588;BME280;40484;50.198;19.576;2023-07-24T18:42:33;100719.55;;;24.52;57.15
54588;BME280;40484;50.198;19.576;2023-07-24T18:47:35;100716.88;;;24.39;57.33
54588;BME280;40484;50.198;19.576;2023-07-24T18:52:36;100672.85;;;24.86;55.95
54588;BME280;40484;50.198;19.576;2023-07-24T18:57:38;100663.30;;;25.40;54.86
54588;BME280;40484;50.198;19.576;2023-07-24T19:02:39;100609.73;;;25.85;53.66
54588;BME280;40484;50.198;19.576;2023-07-24T19:07:41;100539.52;;;26.00;53.11
54588;BME280;40484;50.198;19.576;2023-07-24T19:12:42;100505.63;;;26.22;52.49
54588;BME280;40484;50.198;19.576;2023-07-24T19:17:44;100509.94;;;26.39;51.94
54588;BME280;40484;50.198;19.576;2023-07-24T19:22:45;100508.05;;;26.48;51.46
54588;BME280;40484;50.198;19.576;2023-07-24T19:27:47;100528.91;;;26.58;51.05
54588;BME280;40484;50.198;19.576;2023-07-24T19:32:48;100512.19;;;26.53;51.00
54588;BME280;40484;50.198;19.576;2023-07-24T19:37:49;100518.30;;;26.51;51.06
54588;BME280;40484;50.198;19.576;2023-07-24T19:42:51;100526.16;;;26.49;50.93
54588;BME280;40484;50.198;19.576;2023-07-24T19:47:52;100517.33;;;26.50;50.75
54588;BME280;40484;50.198;19.576;2023-07-24T19:53:22;100502.81;;;26.50;50.92
